createdAt,value
2023-04-12T00:01:04.618Z,73.92
2023-04-12T00:03:34.477Z,73.99
2023-04-12T00:06:03.468Z,74.27
2023-04-12T00:08:33.862Z,74.15
2023-04-12T00:11:02.172Z,73.98
2023-04-12T00:13:29.463Z,74.00
2023-04-12T00:15:56.474Z,74.17
2023-04-12T00:18:25.410Z,74.14
2023-04-12T00:20:53.260Z,73.51
2023-04-12T00:23:20.741Z,74.08
2023-04-12T00:25:47.879Z,74.63
2023-04-12T00:28:16.139Z,75.01
2023-04-12T00:30:43.940Z,75.25
2023-04-12T00:33:11.166Z,75.28
2023-04-12T00:35:38.220Z,75.96
2023-04-12T00:38:10.560Z,76.03
2023-04-12T00:40:44.448Z,76.43
2023-04-12T00:43:15.660Z,76.32
2023-04-12T00:45:42.795Z,76.42
2023-04-12T00:48:10.822Z,76.38
2023-04-12T00:50:37.823Z,76.81
2023-04-12T00:53:05.146Z,77.32
2023-04-12T00:55:32.177Z,77.62
2023-04-12T00:57:59.585Z,77.67
2023-04-12T01:00:27.431Z,77.75
2023-04-12T01:02:54.885Z,77.51
2023-04-12T01:05:23.597Z,78.04
2023-04-12T01:08:15.637Z,78.17
2023-04-12T01:11:09.436Z,78.65
2023-04-12T01:13:49.225Z,78.23
2023-04-12T01:16:25.016Z,77.50
2023-04-12T01:18:54.168Z,76.75
2023-04-12T01:21:49.984Z,76.82
2023-04-12T01:24:43.717Z,76.16
2023-04-12T01:27:37.762Z,75.56
2023-04-12T01:30:05.100Z,75.22
2023-04-12T01:32:32.149Z,75.26
2023-04-12T01:34:59.159Z,75.21
2023-04-12T01:37:26.117Z,75.15
2023-04-12T01:39:53.292Z,75.18
2023-04-12T01:42:23.179Z,75.55
2023-04-12T01:44:50.657Z,75.85
2023-04-12T01:47:17.557Z,75.89
2023-04-12T01:50:00.643Z,76.49
2023-04-12T01:52:27.617Z,76.42
2023-04-12T01:54:55.041Z,76.99
2023-04-12T01:57:22.203Z,77.13
2023-04-12T01:59:49.258Z,77.78
2023-04-12T02:02:16.525Z,78.14
2023-04-12T02:04:43.601Z,78.09
2023-04-12T02:07:11.523Z,78.35
2023-04-12T02:09:38.847Z,78.50
2023-04-12T02:12:06.630Z,78.67
2023-04-12T02:14:33.974Z,78.89
2023-04-12T02:17:04.396Z,78.48
2023-04-12T02:19:32.770Z,78.76
2023-04-12T02:21:59.930Z,79.10
2023-04-12T02:24:29.213Z,79.36
2023-04-12T02:26:56.532Z,79.43
2023-04-12T02:29:23.980Z,79.31
2023-04-12T02:31:51.373Z,79.12
2023-04-12T02:34:19.570Z,79.03
2023-04-12T02:36:52.502Z,79.46
2023-04-12T02:39:22.257Z,79.10
2023-04-12T02:41:51.606Z,78.73
2023-04-12T02:44:18.542Z,78.60
2023-04-12T02:47:08.490Z,78.93
2023-04-12T02:49:36.340Z,79.42
2023-04-12T02:52:04.107Z,79.95
2023-04-12T02:54:39.062Z,79.91
2023-04-12T02:57:08.300Z,79.99
2023-04-12T02:59:42.486Z,79.98
2023-04-12T03:02:20.609Z,80.03
2023-04-12T03:04:51.017Z,80.43
2023-04-12T03:07:22.577Z,80.48
2023-04-12T03:09:51.738Z,80.44
2023-04-12T03:12:21.155Z,80.47
2023-04-12T03:15:01.248Z,80.87
2023-04-12T03:17:29.699Z,80.90
2023-04-12T03:19:58.272Z,80.86
2023-04-12T03:22:26.671Z,80.50
2023-04-12T03:24:58.537Z,79.40
2023-04-12T03:27:25.561Z,78.66
2023-04-12T03:29:53.542Z,77.71
2023-04-12T03:32:23.156Z,76.98
2023-04-12T03:34:51.125Z,76.62
2023-04-12T03:37:24.640Z,76.16
2023-04-12T03:39:53.059Z,75.52
2023-04-12T03:42:33.030Z,74.48
2023-04-12T03:45:06.039Z,73.88
2023-04-12T03:47:33.342Z,73.61
2023-04-12T03:52:35.127Z,73.02
2023-04-12T03:55:07.866Z,72.62
2023-04-12T03:57:36.161Z,73.10
2023-04-12T04:00:04.824Z,73.45
2023-04-12T04:02:47.412Z,72.54
2023-04-12T04:05:16.566Z,73.17
2023-04-12T04:07:44.871Z,73.51
2023-04-12T04:10:13.517Z,73.92
2023-04-12T04:12:41.923Z,73.91
2023-04-12T04:15:11.840Z,73.63
2023-04-12T04:17:40.242Z,73.08
2023-04-12T04:20:09.176Z,72.15
2023-04-12T04:22:38.668Z,71.70
2023-04-12T04:25:06.225Z,70.98
2023-04-12T04:27:38.567Z,70.96
2023-04-12T04:30:08.172Z,70.38
2023-04-12T04:32:38.696Z,69.59
2023-04-12T04:35:06.248Z,68.06
2023-04-12T04:37:44.977Z,67.21
2023-04-12T04:40:15.165Z,66.60
2023-04-12T04:42:43.260Z,66.28
2023-04-12T04:45:14.829Z,65.11
2023-04-12T04:47:44.444Z,65.02
2023-04-12T04:50:11.741Z,63.89
2023-04-12T04:52:39.475Z,62.94
2023-04-12T04:55:11.402Z,61.97
2023-04-12T04:57:44.083Z,61.59
2023-04-12T05:00:11.845Z,60.32
2023-04-12T05:02:43.155Z,59.61
2023-04-12T05:05:16.185Z,58.21
2023-04-12T05:07:44.835Z,58.46
2023-04-12T05:10:11.986Z,56.43
2023-04-12T05:12:41.679Z,56.25
2023-04-12T05:15:12.268Z,54.44
2023-04-12T05:17:41.110Z,54.16
2023-04-12T05:20:10.838Z,53.28
2023-04-12T05:22:39.082Z,52.27
2023-04-12T05:25:06.630Z,51.39
2023-04-12T05:27:39.346Z,51.26
2023-04-12T05:30:09.078Z,50.93
2023-04-12T05:32:36.181Z,50.58
2023-04-12T05:35:03.693Z,49.64
2023-04-12T05:37:31.257Z,48.63
2023-04-12T05:39:58.330Z,47.91
2023-04-12T05:42:25.514Z,47.68
2023-04-12T05:44:52.632Z,46.96
2023-04-12T05:47:21.613Z,46.81
2023-04-12T05:49:49.102Z,46.36
2023-04-12T05:52:18.132Z,45.30
2023-04-12T05:54:45.284Z,45.14
2023-04-12T05:57:17.835Z,44.52
2023-04-12T05:59:47.656Z,44.38
2023-04-12T06:02:14.770Z,43.11
2023-04-12T06:04:50.148Z,42.35
2023-04-12T06:07:19.582Z,41.86
2023-04-12T06:09:47.439Z,41.32
2023-04-12T06:12:15.439Z,40.40
2023-04-12T06:14:42.763Z,39.04
2023-04-12T06:17:09.759Z,38.02
2023-04-12T06:19:36.763Z,37.89
2023-04-12T06:22:03.788Z,37.95
2023-04-12T06:24:31.897Z,37.22
2023-04-12T06:26:59.087Z,37.45
2023-04-12T06:29:26.235Z,38.14
2023-04-12T06:31:53.353Z,36.60
2023-04-12T06:34:20.605Z,36.75
2023-04-12T06:36:48.238Z,36.63
2023-04-12T06:39:16.421Z,36.42
2023-04-12T06:41:50.505Z,35.88
2023-04-12T06:44:20.352Z,35.78
2023-04-12T06:46:47.225Z,36.54
2023-04-12T06:49:14.328Z,36.49
2023-04-12T06:51:41.352Z,34.99
2023-04-12T06:54:08.331Z,35.41
2023-04-12T06:56:37.224Z,33.62
2023-04-12T06:59:04.289Z,32.70
2023-04-12T07:01:31.587Z,31.68
2023-04-12T07:03:58.686Z,31.57
2023-04-12T07:06:26.390Z,31.62
2023-04-12T07:08:53.408Z,31.42
2023-04-12T07:11:23.097Z,31.07
2023-04-12T07:13:50.838Z,30.45
2023-04-12T07:16:18.497Z,30.22
2023-04-12T07:18:45.651Z,30.52
2023-04-12T07:21:17.586Z,31.10
2023-04-12T07:23:44.873Z,30.88
2023-04-12T07:26:11.856Z,30.68
2023-04-12T07:28:39.516Z,29.93
2023-04-12T07:31:07.314Z,29.50
2023-04-12T07:33:36.240Z,28.97
2023-04-12T07:36:04.115Z,28.44
2023-04-12T07:38:31.332Z,28.10
2023-04-12T07:40:58.421Z,27.69
2023-04-12T07:43:25.597Z,27.42
2023-04-12T07:45:54.234Z,27.33
2023-04-12T07:48:21.343Z,26.85
2023-04-12T07:50:48.220Z,26.77
2023-04-12T07:53:22.039Z,27.08
2023-04-12T07:55:49.319Z,27.45
2023-04-12T07:58:17.156Z,26.96
2023-04-12T08:00:44.828Z,27.23
2023-04-12T08:03:16.220Z,26.73
2023-04-12T08:05:44.308Z,26.96
2023-04-12T08:08:11.866Z,26.51
2023-04-12T08:10:39.526Z,25.93
2023-04-12T08:13:07.846Z,25.98
2023-04-12T08:15:34.855Z,26.25
2023-04-12T08:18:02.409Z,25.83
2023-04-12T08:20:29.646Z,25.92
2023-04-12T08:22:56.713Z,25.60
2023-04-12T08:25:24.514Z,25.58
2023-04-12T08:27:51.691Z,25.66
2023-04-12T08:30:18.859Z,25.75
2023-04-12T08:32:46.051Z,25.44
2023-04-12T08:35:14.467Z,24.92
2023-04-12T08:37:41.997Z,24.92
2023-04-12T08:40:09.479Z,24.94
2023-04-12T08:42:39.840Z,24.80
2023-04-12T08:45:07.830Z,24.19
2023-04-12T08:47:35.001Z,24.21
2023-04-12T08:50:06.035Z,24.32
2023-04-12T08:52:33.152Z,24.42
2023-04-12T08:55:01.487Z,24.65
2023-04-12T08:57:30.090Z,24.37
2023-04-12T09:00:00.299Z,24.05
2023-04-12T09:02:27.515Z,23.88
2023-04-12T09:04:54.826Z,23.69
2023-04-12T09:07:28.071Z,23.53
2023-04-12T09:09:55.255Z,23.60
2023-04-12T09:12:24.280Z,24.09
2023-04-12T09:15:12.837Z,24.47
2023-04-12T09:17:41.090Z,23.56
2023-04-12T09:20:17.268Z,23.16
2023-04-12T09:22:45.323Z,23.41
2023-04-12T09:25:12.925Z,23.87
2023-04-12T09:27:49.708Z,23.75
2023-04-12T09:30:17.275Z,23.93
2023-04-12T09:32:44.320Z,23.27
2023-04-12T09:35:12.216Z,23.53
2023-04-12T09:37:40.337Z,23.01
2023-04-12T09:40:08.946Z,23.00
2023-04-12T09:42:36.997Z,23.35
2023-04-12T09:45:19.631Z,22.50
2023-04-12T09:47:46.776Z,22.78
2023-04-12T09:50:24.677Z,22.38
2023-04-12T09:52:51.844Z,22.44
2023-04-12T09:55:18.851Z,22.73
2023-04-12T09:57:46.197Z,23.71
2023-04-12T10:00:20.229Z,23.22
2023-04-12T10:02:55.407Z,22.13
2023-04-12T10:05:26.286Z,23.45
2023-04-12T10:07:55.009Z,22.82
2023-04-12T10:10:22.548Z,22.37
2023-04-12T10:12:49.636Z,21.95
2023-04-12T10:15:21.348Z,22.69
2023-04-12T10:17:55.489Z,22.24
2023-04-12T10:20:24.194Z,21.92
2023-04-12T10:22:54.240Z,21.95
2023-04-12T10:25:25.433Z,21.96
2023-04-12T10:27:52.728Z,21.89
2023-04-12T10:30:20.767Z,21.89
2023-04-12T10:32:47.891Z,22.18
2023-04-12T10:35:15.099Z,22.27
2023-04-12T10:38:01.567Z,21.79
2023-04-12T10:40:29.612Z,21.76
2023-04-12T10:43:32.300Z,21.80
2023-04-12T10:46:04.436Z,21.97
2023-04-12T10:48:32.778Z,22.63
2023-04-12T10:51:13.057Z,22.84
2023-04-12T10:53:40.238Z,21.84
2023-04-12T10:56:32.727Z,21.25
2023-04-12T10:59:04.655Z,21.41
2023-04-12T11:01:39.314Z,21.40
2023-04-12T11:04:10.444Z,21.78
2023-04-12T11:06:53.370Z,21.46
2023-04-12T11:09:55.572Z,22.81
2023-04-12T11:12:35.222Z,21.97
2023-04-12T11:15:02.391Z,22.15
2023-04-12T11:17:38.781Z,21.91
2023-04-12T11:20:06.657Z,22.45
2023-04-12T11:22:33.861Z,22.70
2023-04-12T11:25:02.538Z,23.15
2023-04-12T11:27:31.992Z,22.48
2023-04-12T11:29:59.892Z,22.12
2023-04-12T11:32:28.575Z,21.88
2023-04-12T11:34:56.827Z,21.84
2023-04-12T11:37:24.306Z,21.92
2023-04-12T11:39:53.071Z,21.46
2023-04-12T11:42:21.278Z,21.32
2023-04-12T11:44:57.627Z,21.29
2023-04-12T11:47:27.929Z,21.88
2023-04-12T11:49:56.660Z,21.74
2023-04-12T11:52:31.270Z,21.92
2023-04-12T11:55:01.495Z,21.81
2023-04-12T11:57:31.232Z,21.73
2023-04-12T11:59:59.706Z,21.02
2023-04-12T12:02:30.393Z,21.19
2023-04-12T12:05:00.755Z,20.99
2023-04-12T12:07:28.324Z,21.87
2023-04-12T12:09:55.589Z,21.60
2023-04-12T12:12:22.589Z,20.94
2023-04-12T12:14:49.634Z,21.05
2023-04-12T12:17:17.558Z,21.34
2023-04-12T12:19:46.012Z,20.97
2023-04-12T12:22:13.893Z,21.66
2023-04-12T12:24:51.364Z,21.14
2023-04-12T12:27:19.945Z,20.61
2023-04-12T12:29:53.567Z,20.49
2023-04-12T12:32:23.403Z,20.35
2023-04-12T12:34:54.793Z,20.77
2023-04-12T12:37:24.598Z,20.80
2023-04-12T12:40:13.842Z,20.42
2023-04-12T12:42:48.892Z,21.02
2023-04-12T12:45:17.308Z,21.67
2023-04-12T12:48:03.330Z,21.18
2023-04-12T12:50:31.731Z,21.08
2023-04-12T12:53:00.836Z,21.22
2023-04-12T12:55:28.630Z,20.79
2023-04-12T12:58:07.496Z,21.45
2023-04-12T13:00:35.576Z,21.42
2023-04-12T13:03:03.416Z,21.64
2023-04-12T13:05:30.985Z,21.58
2023-04-12T13:07:58.444Z,21.73
2023-04-12T13:10:27.216Z,22.41
2023-04-12T13:12:54.467Z,21.75
2023-04-12T13:15:24.314Z,21.84
2023-04-12T13:17:52.606Z,22.14
2023-04-12T13:20:19.828Z,22.63
2023-04-12T13:22:46.791Z,22.67
2023-04-12T13:25:14.070Z,22.43
2023-04-12T13:27:41.257Z,22.80
2023-04-12T13:30:08.722Z,22.23
2023-04-12T13:32:36.037Z,22.36
2023-04-12T13:35:04.024Z,22.31
2023-04-12T13:37:31.617Z,22.29
2023-04-12T13:39:58.589Z,22.47
2023-04-12T13:42:25.766Z,22.51
2023-04-12T13:44:52.942Z,23.00
2023-04-12T13:47:20.100Z,22.89
2023-04-12T13:49:47.162Z,23.00
2023-04-12T13:52:14.127Z,23.12
2023-04-12T13:54:41.309Z,23.66
2023-04-12T13:57:08.363Z,23.72
2023-04-12T13:59:35.635Z,23.52
2023-04-12T14:02:02.797Z,23.70
2023-04-12T14:04:30.958Z,23.73
2023-04-12T14:06:59.097Z,23.78
2023-04-12T14:09:27.412Z,24.10
2023-04-12T14:11:58.083Z,24.10
2023-04-12T14:14:25.709Z,24.39
2023-04-12T14:16:53.801Z,24.53
2023-04-12T14:19:21.363Z,24.51
2023-04-12T14:21:48.614Z,24.63
2023-04-12T14:24:16.347Z,25.34
2023-04-12T14:26:43.835Z,24.88
2023-04-12T14:29:11.117Z,25.21
2023-04-12T14:31:38.594Z,25.32
2023-04-12T14:34:06.403Z,25.46
2023-04-12T14:36:33.566Z,25.14
2023-04-12T14:39:03.739Z,25.44
2023-04-12T14:41:31.796Z,26.14
2023-04-12T14:44:02.035Z,26.12
2023-04-12T14:46:29.377Z,26.44
2023-04-12T14:48:57.392Z,26.48
2023-04-12T14:51:24.655Z,26.52
2023-04-12T14:53:51.654Z,26.49
2023-04-12T14:56:24.643Z,26.56
2023-04-12T14:58:56.018Z,26.64
2023-04-12T15:01:23.947Z,26.44
2023-04-12T15:03:52.505Z,26.63
2023-04-12T15:06:22.024Z,26.53
2023-04-12T15:08:54.386Z,26.89
2023-04-12T15:11:27.263Z,27.03
2023-04-12T15:13:55.298Z,27.90
2023-04-12T15:16:23.118Z,27.83
2023-04-12T15:18:50.670Z,27.40
2023-04-12T15:21:17.826Z,27.61
2023-04-12T15:23:45.124Z,28.65
2023-04-12T15:26:14.199Z,28.87
2023-04-12T15:28:41.842Z,29.25
2023-04-12T15:31:09.691Z,28.83
2023-04-12T15:33:37.546Z,31.21
2023-04-12T15:36:05.038Z,32.41
2023-04-12T15:38:32.185Z,33.57
2023-04-12T15:41:01.776Z,35.02
2023-04-12T15:43:29.040Z,35.74
2023-04-12T15:45:56.790Z,37.87
2023-04-12T15:48:24.614Z,38.95
2023-04-12T15:50:52.266Z,39.62
2023-04-12T15:53:20.383Z,40.58
2023-04-12T15:55:47.902Z,41.45
2023-04-12T15:58:14.872Z,42.70
2023-04-12T16:00:42.523Z,43.66
2023-04-12T16:03:10.145Z,44.40
2023-04-12T16:05:37.406Z,44.27
2023-04-12T16:08:04.377Z,44.80
2023-04-12T16:10:32.248Z,45.64
2023-04-12T16:12:59.358Z,46.63
2023-04-12T16:15:26.804Z,47.47
2023-04-12T16:17:55.596Z,47.89
2023-04-12T16:20:23.101Z,48.69
2023-04-12T16:22:54.316Z,49.35
2023-04-12T16:25:22.533Z,50.01
2023-04-12T16:27:49.594Z,50.34
2023-04-12T16:30:17.202Z,50.73
2023-04-12T16:32:47.469Z,51.42
2023-04-12T16:35:15.261Z,52.13
2023-04-12T16:37:43.272Z,52.37
2023-04-12T16:40:12.825Z,52.67
2023-04-12T16:42:41.842Z,52.99
2023-04-12T16:45:09.683Z,53.78
2023-04-12T16:47:37.467Z,54.05
2023-04-12T16:50:05.022Z,54.25
2023-04-12T16:52:32.169Z,54.22
2023-04-12T16:55:00.800Z,52.88
2023-04-12T16:57:28.204Z,52.53
2023-04-12T16:59:55.621Z,52.26
2023-04-12T17:02:23.064Z,50.75
2023-04-12T17:04:50.481Z,46.67
2023-04-12T17:07:17.744Z,44.55
2023-04-12T17:09:44.758Z,45.16
2023-04-12T17:12:12.664Z,45.87
2023-04-12T17:14:39.827Z,44.48
2023-04-12T17:17:07.195Z,43.71
2023-04-12T17:19:34.530Z,45.63
2023-04-12T17:22:01.856Z,47.84
2023-04-12T17:24:29.348Z,50.12
2023-04-12T17:26:57.614Z,51.52
2023-04-12T17:29:24.979Z,52.60
2023-04-12T17:31:54.373Z,53.51
2023-04-12T17:34:22.344Z,54.73
2023-04-12T17:36:49.469Z,55.50
2023-04-12T17:39:16.769Z,55.82
2023-04-12T17:41:43.875Z,54.95
2023-04-12T17:44:10.940Z,55.70
2023-04-12T17:46:38.086Z,56.75
2023-04-12T17:49:06.848Z,57.32
2023-04-12T17:51:33.993Z,57.89
2023-04-12T17:54:03.638Z,58.06
2023-04-12T17:56:30.915Z,58.03
2023-04-12T17:58:58.500Z,57.82
2023-04-12T18:01:25.561Z,58.51
2023-04-12T18:03:52.973Z,59.36
2023-04-12T18:06:20.551Z,59.29
2023-04-12T18:08:47.643Z,60.02
2023-04-12T18:11:14.917Z,60.31
2023-04-12T18:13:42.096Z,60.71
2023-04-12T18:16:09.354Z,61.14
2023-04-12T18:18:36.605Z,61.76
2023-04-12T18:21:05.501Z,62.52
2023-04-12T18:23:32.576Z,62.92
2023-04-12T18:25:59.688Z,62.96
2023-04-12T18:28:26.690Z,62.74
2023-04-12T18:30:56.108Z,62.43
2023-04-12T18:33:24.379Z,62.58
2023-04-12T18:35:51.472Z,62.85
2023-04-12T18:38:18.814Z,63.30
2023-04-12T18:40:46.000Z,63.05
2023-04-12T18:43:12.998Z,63.13
2023-04-12T18:45:40.937Z,63.24
2023-04-12T18:48:08.756Z,63.78
2023-04-12T18:50:39.403Z,64.00
2023-04-12T18:53:07.216Z,63.42
2023-04-12T18:55:34.412Z,63.51
2023-04-12T18:58:01.875Z,64.10
2023-04-12T19:00:29.088Z,64.19
2023-04-12T19:02:56.352Z,63.83
2023-04-12T19:05:24.193Z,62.55
2023-04-12T19:07:52.058Z,61.17
2023-04-12T19:10:19.226Z,61.11
2023-04-12T19:12:46.285Z,61.68
2023-04-12T19:15:13.408Z,62.56
2023-04-12T19:17:40.586Z,62.77
2023-04-12T19:20:09.081Z,63.17
2023-04-12T19:22:36.361Z,62.75
2023-04-12T19:25:03.681Z,62.76
2023-04-12T19:27:30.757Z,63.31
2023-04-12T19:29:58.320Z,64.07
2023-04-12T19:32:25.703Z,64.79
2023-04-12T19:34:52.807Z,65.04
2023-04-12T19:37:19.997Z,65.47
2023-04-12T19:39:47.098Z,66.24
2023-04-12T19:42:16.838Z,66.79
2023-04-12T19:44:43.907Z,66.88
2023-04-12T19:47:11.040Z,67.65
2023-04-12T19:49:38.096Z,67.90
2023-04-12T19:52:05.852Z,68.14
2023-04-12T19:54:33.494Z,68.24
2023-04-12T19:57:00.504Z,68.23
2023-04-12T19:59:30.855Z,68.91
2023-04-12T20:01:58.702Z,68.30
2023-04-12T20:04:26.598Z,68.42
2023-04-12T20:06:53.835Z,68.63
2023-04-12T20:09:24.107Z,68.96
2023-04-12T20:11:51.179Z,68.76
2023-04-12T20:14:18.213Z,68.53
2023-04-12T20:16:45.592Z,69.03
2023-04-12T20:19:13.290Z,68.85
2023-04-12T20:21:40.420Z,67.99
2023-04-12T20:24:08.815Z,67.17
2023-04-12T20:26:36.397Z,67.23
2023-04-12T20:29:05.364Z,66.84
2023-04-12T20:31:35.372Z,66.66
2023-04-12T20:34:02.389Z,67.01
2023-04-12T20:36:29.725Z,68.08
2023-04-12T20:38:57.032Z,68.51
2023-04-12T20:41:24.360Z,68.20
2023-04-12T20:43:51.676Z,68.28
2023-04-12T20:46:25.870Z,68.87
2023-04-12T20:48:56.534Z,69.09
2023-04-12T20:51:24.224Z,69.42
2023-04-12T20:53:51.787Z,69.04
2023-04-12T20:56:18.956Z,69.37
2023-04-12T20:58:48.501Z,69.29
2023-04-12T21:01:15.752Z,67.62
2023-04-12T21:03:43.384Z,67.18
2023-04-12T21:06:11.048Z,67.17
2023-04-12T21:08:39.002Z,67.69
2023-04-12T21:11:06.298Z,67.62
2023-04-12T21:13:34.708Z,67.68
2023-04-12T21:16:02.529Z,66.63
2023-04-12T21:18:32.303Z,66.62
2023-04-12T21:20:59.802Z,67.06
2023-04-12T21:23:26.865Z,68.00
2023-04-12T21:25:54.114Z,68.44
2023-04-12T21:28:21.055Z,67.71
2023-04-12T21:30:49.568Z,68.04
2023-04-12T21:33:24.714Z,68.03
2023-04-12T21:35:54.783Z,68.22
2023-04-12T21:38:22.389Z,68.05
2023-04-12T21:40:49.616Z,67.18
2023-04-12T21:46:10.093Z,67.54
2023-04-12T21:48:37.167Z,68.08
2023-04-12T21:51:04.274Z,69.22
2023-04-12T21:53:31.246Z,69.30
2023-04-12T21:55:59.094Z,68.98
2023-04-12T21:58:26.044Z,68.71
2023-04-12T22:00:53.484Z,69.20
2023-04-12T22:03:20.560Z,69.73
2023-04-12T22:06:00.893Z,69.51
2023-04-12T22:08:32.988Z,69.84
2023-04-12T22:11:00.463Z,69.20
2023-04-12T22:13:27.597Z,69.00
2023-04-12T22:15:54.579Z,67.30
2023-04-12T22:18:22.108Z,66.30
2023-04-12T22:20:49.083Z,65.87
2023-04-12T22:23:18.232Z,64.12
2023-04-12T22:25:46.042Z,63.64
2023-04-12T22:28:12.964Z,63.56
2023-04-12T22:30:39.959Z,64.08
2023-04-12T22:33:08.312Z,63.76
2023-04-12T22:35:37.254Z,63.68
2023-04-12T22:38:04.962Z,62.24
2023-04-12T22:40:31.925Z,62.45
2023-04-12T22:42:58.897Z,63.86
2023-04-12T22:45:25.845Z,63.86
2023-04-12T22:47:53.105Z,64.98
2023-04-12T22:50:20.150Z,63.89
2023-04-12T22:52:49.977Z,64.38
2023-04-12T22:55:20.573Z,64.97
2023-04-12T22:57:47.539Z,64.56
2023-04-12T23:00:17.012Z,64.43
2023-04-12T23:02:46.222Z,65.07
2023-04-12T23:05:14.146Z,65.97
2023-04-12T23:07:41.537Z,66.56
2023-04-12T23:10:09.408Z,66.87
2023-04-12T23:12:37.425Z,66.84
2023-04-12T23:15:05.780Z,67.49
2023-04-12T23:17:33.885Z,67.73
2023-04-12T23:20:01.966Z,68.14
2023-04-12T23:22:48.588Z,67.70
2023-04-12T23:25:24.438Z,67.99
2023-04-12T23:27:51.747Z,68.72
2023-04-12T23:30:19.003Z,69.32
2023-04-12T23:32:46.292Z,69.54
2023-04-12T23:35:14.467Z,69.87
2023-04-12T23:37:41.857Z,70.11
2023-04-12T23:40:14.890Z,70.86
2023-04-12T23:42:43.476Z,70.17
2023-04-12T23:45:10.988Z,70.63
2023-04-12T23:47:38.253Z,70.55
2023-04-12T23:50:06.339Z,70.94
2023-04-12T23:52:33.389Z,71.29
2023-04-12T23:55:00.456Z,71.45
2023-04-12T23:57:27.417Z,71.51
2023-04-12T23:59:54.449Z,70.61
